createdAt,value
2023-08-01T00:00:25.381Z,100207.53
2023-08-01T00:02:55.115Z,100206.78
2023-08-01T00:05:24.924Z,100203.25
2023-08-01T00:07:55.744Z,100207.88
2023-08-01T00:10:25.476Z,100208.16
2023-08-01T00:12:55.551Z,100196.22
2023-08-01T00:15:25.269Z,100203.56
2023-08-01T00:17:57.608Z,100199.44
2023-08-01T00:20:27.756Z,100199.50
2023-08-01T00:22:58.020Z,100199.25
2023-08-01T00:25:30.462Z,100197.34
2023-08-01T00:28:00.558Z,100199.84
2023-08-01T00:30:30.750Z,100196.03
2023-08-01T00:33:01.585Z,100196.03
2023-08-01T00:35:31.398Z,100191.41
2023-08-01T00:38:01.113Z,100192.22
2023-08-01T00:40:40.141Z,100191.06
2023-08-01T00:43:12.568Z,100194.94
2023-08-01T00:45:42.294Z,100188.41
2023-08-01T00:48:14.691Z,100190.56
2023-08-01T00:50:44.427Z,100191.97
2023-08-01T00:53:15.325Z,100190.31
2023-08-01T00:55:45.079Z,100192.22
2023-08-01T00:58:18.217Z,100199.56
2023-08-01T01:00:48.566Z,100194.94
2023-08-01T01:03:19.854Z,100199.09
2023-08-01T01:06:14.740Z,100191.31
2023-08-01T01:08:44.775Z,100187.84
2023-08-01T01:11:14.847Z,100193.88
2023-08-01T01:13:44.610Z,100196.09
2023-08-01T01:16:14.385Z,100195.53
2023-08-01T01:18:47.315Z,100187.38
2023-08-01T01:21:17.471Z,100186.28
2023-08-01T01:23:47.450Z,100182.22
2023-08-01T01:26:20.440Z,100180.22
2023-08-01T01:28:52.199Z,100171.00
2023-08-01T01:31:22.314Z,100169.41
2023-08-01T01:33:52.037Z,100166.09
2023-08-01T01:36:22.547Z,100168.34
2023-08-01T01:38:52.632Z,100167.53
2023-08-01T01:41:23.052Z,100166.44
2023-08-01T01:43:54.319Z,100169.16
2023-08-01T01:46:26.737Z,100163.72
2023-08-01T01:48:57.293Z,100163.94
2023-08-01T01:51:28.920Z,100166.44
2023-08-01T01:53:58.714Z,100168.34
2023-08-01T01:56:29.149Z,100171.91
2023-08-01T01:58:59.253Z,100168.91
2023-08-01T02:01:29.931Z,100164.53
2023-08-01T02:04:02.943Z,100149.25
2023-08-01T02:06:32.658Z,100149.00
2023-08-01T02:09:03.222Z,100153.63
2023-08-01T02:11:33.053Z,100150.91
2023-08-01T02:14:04.474Z,100147.09
2023-08-01T02:16:35.318Z,100151.47
2023-08-01T02:19:05.372Z,100152.28
2023-08-01T02:21:36.391Z,100143.88
2023-08-01T02:24:07.018Z,100143.88
2023-08-01T02:26:37.194Z,100141.16
2023-08-01T02:29:07.297Z,100133.78
2023-08-01T02:31:38.788Z,100136.25
2023-08-01T02:34:08.548Z,100129.16
2023-08-01T02:36:43.729Z,100126.69
2023-08-01T02:39:16.375Z,100124.44
2023-08-01T02:41:46.231Z,100126.97
2023-08-01T02:44:18.817Z,100121.53
2023-08-01T02:46:49.571Z,100125.34
2023-08-01T02:49:19.303Z,100121.53
2023-08-01T02:51:54.979Z,100111.72
2023-08-01T02:54:25.135Z,100106.00
2023-08-01T02:56:54.762Z,100100.53
2023-08-01T02:59:29.364Z,100099.16
2023-08-01T03:01:59.115Z,100099.97
2023-08-01T03:04:45.182Z,100095.03
2023-08-01T03:07:16.577Z,100097.81
2023-08-01T03:09:46.941Z,100099.97
2023-08-01T03:12:17.027Z,100096.44
2023-08-01T03:14:50.367Z,100094.53
2023-08-01T03:17:20.905Z,100091.47
2023-08-01T03:19:52.400Z,100092.81
2023-08-01T03:22:22.403Z,100088.25
2023-08-01T03:24:52.840Z,100079.31
2023-08-01T03:27:22.980Z,100075.00
2023-08-01T03:29:54.026Z,100068.13
2023-08-01T03:32:24.881Z,100069.72
2023-08-01T03:34:55.063Z,100071.13
2023-08-01T03:37:25.238Z,100063.72
2023-08-01T03:39:54.934Z,100070.84
2023-08-01T03:42:25.611Z,100068.13
2023-08-01T03:44:55.970Z,100059.41
2023-08-01T03:47:25.658Z,100056.13
2023-08-01T03:49:56.198Z,100046.63
2023-08-01T03:52:26.292Z,100045.00
2023-08-01T03:55:00.196Z,100044.41
2023-08-01T03:57:29.880Z,100042.56
2023-08-01T03:59:59.578Z,100030.31
2023-08-01T04:02:29.277Z,100030.81
2023-08-01T04:05:00.044Z,100022.84
2023-08-01T04:07:29.762Z,100026.97
2023-08-01T04:09:59.883Z,100031.34
2023-08-01T04:12:30.232Z,100028.38
2023-08-01T04:15:03.022Z,100028.91
2023-08-01T04:17:33.574Z,100021.06
2023-08-01T04:20:04.009Z,100017.50
2023-08-01T04:22:34.149Z,100024.59
2023-08-01T04:25:05.149Z,100023.38
2023-08-01T04:27:35.858Z,100002.31
2023-08-01T04:30:06.066Z,100005.03
2023-08-01T04:32:35.834Z,100000.44
2023-08-01T04:35:05.655Z,99998.50
2023-08-01T04:37:35.594Z,99999.69
2023-08-01T04:40:05.439Z,99990.69
2023-08-01T04:42:35.546Z,99989.59
2023-08-01T04:45:05.813Z,99981.13
2023-08-01T04:47:36.386Z,99981.91
2023-08-01T04:50:07.591Z,99983.31
2023-08-01T04:52:40.022Z,99976.78
2023-08-01T04:55:10.344Z,99969.41
2023-08-01T04:57:45.480Z,99972.34
2023-08-01T05:00:19.319Z,99963.34
2023-08-01T05:02:49.184Z,99963.69
2023-08-01T05:05:20.902Z,99969.41
2023-08-01T05:07:53.799Z,99966.59
2023-08-01T05:10:23.444Z,99964.25
2023-08-01T05:12:53.786Z,99962.84
2023-08-01T05:15:23.820Z,99955.81
2023-08-01T05:17:54.246Z,99964.81
2023-08-01T05:20:24.677Z,99957.22
2023-08-01T05:22:56.151Z,99967.84
2023-08-01T05:25:28.681Z,99958.84
2023-08-01T05:27:58.445Z,99966.50
2023-08-01T05:30:28.529Z,99958.56
2023-08-01T05:32:58.513Z,99956.38
2023-08-01T05:35:29.407Z,99956.06
2023-08-01T05:37:59.165Z,99948.72
2023-08-01T05:40:28.834Z,99953.66
2023-08-01T05:42:58.760Z,99947.84
2023-08-01T05:45:28.524Z,99938.34
2023-08-01T05:47:59.689Z,99939.53
2023-08-01T05:50:29.445Z,99926.94
2023-08-01T05:52:59.320Z,99930.38
2023-08-01T05:55:32.775Z,99928.56
2023-08-01T05:58:03.469Z,99924.22
2023-08-01T06:00:36.007Z,99915.81
2023-08-01T06:03:06.564Z,99917.22
2023-08-01T06:05:37.241Z,99925.22
2023-08-01T06:08:09.101Z,99925.25
2023-08-01T06:10:39.233Z,99921.44
2023-08-01T06:13:08.882Z,99924.31
2023-08-01T06:15:38.909Z,99920.06
2023-08-01T06:18:08.638Z,99915.38
2023-08-01T06:20:39.054Z,99915.84
2023-08-01T06:23:09.176Z,99914.03
2023-08-01T06:25:39.933Z,99907.09
2023-08-01T06:28:15.195Z,99907.72
2023-08-01T06:30:45.290Z,99906.16
2023-08-01T06:33:15.384Z,99907.88
2023-08-01T06:35:45.121Z,99904.09
2023-08-01T06:38:15.520Z,99904.41
2023-08-01T06:40:48.642Z,99906.59
2023-08-01T06:43:18.448Z,99904.38
2023-08-01T06:45:48.528Z,99901.94
2023-08-01T06:48:20.932Z,99907.50
2023-08-01T06:50:51.306Z,99897.97
2023-08-01T06:53:22.038Z,99904.53
2023-08-01T06:55:52.381Z,99900.44
2023-08-01T06:58:22.544Z,99897.19
2023-08-01T07:00:54.939Z,99895.03
2023-08-01T07:03:27.128Z,99892.88
2023-08-01T07:05:57.337Z,99884.19
2023-08-01T07:08:27.105Z,99883.81
2023-08-01T07:10:57.570Z,99877.06
2023-08-01T07:13:31.262Z,99883.13
2023-08-01T07:16:01.632Z,99880.91
2023-08-01T07:18:31.763Z,99880.72
2023-08-01T07:21:05.480Z,99879.06
2023-08-01T07:23:38.819Z,99883.47
2023-08-01T07:26:08.620Z,99878.03
2023-08-01T07:28:39.198Z,99875.78
2023-08-01T07:31:09.753Z,99873.28
2023-08-01T07:33:43.419Z,99874.44
2023-08-01T07:36:13.755Z,99879.06
2023-08-01T07:38:44.620Z,99880.44
2023-08-01T07:41:15.461Z,99875.38
2023-08-01T07:43:48.237Z,99875.94
2023-08-01T07:46:18.158Z,99881.47
2023-08-01T07:48:48.087Z,99882.88
2023-08-01T07:51:18.343Z,99876.88
2023-08-01T07:53:50.755Z,99870.91
2023-08-01T07:56:21.579Z,99878.88
2023-08-01T07:58:51.296Z,99880.50
2023-08-01T08:01:23.797Z,99871.69
2023-08-01T08:03:53.605Z,99879.59
2023-08-01T08:06:27.528Z,99879.84
2023-08-01T08:08:59.932Z,99879.84
2023-08-01T08:11:29.647Z,99878.03
2023-08-01T08:13:59.319Z,99880.00
2023-08-01T08:16:33.182Z,99882.13
2023-08-01T08:19:05.766Z,99886.50
2023-08-01T08:21:35.469Z,99884.56
2023-08-01T08:24:05.511Z,99881.63
2023-08-01T08:26:40.120Z,99872.34
2023-08-01T08:29:11.010Z,99873.44
2023-08-01T08:31:41.114Z,99873.44
2023-08-01T08:34:10.852Z,99871.81
2023-08-01T08:36:41.812Z,99876.72
2023-08-01T08:39:12.367Z,99875.09
2023-08-01T08:41:45.263Z,99875.88
2023-08-01T08:44:15.373Z,99871.00
2023-08-01T08:46:46.964Z,99867.44
2023-08-01T08:49:18.427Z,99859.00
2023-08-01T08:51:48.155Z,99857.34
2023-08-01T08:54:19.251Z,99864.72
2023-08-01T08:56:50.530Z,99865.53
2023-08-01T08:59:20.231Z,99862.56
2023-08-01T09:01:50.057Z,99861.47
2023-08-01T09:04:22.835Z,99863.66
2023-08-01T09:06:53.285Z,99857.28
2023-08-01T09:09:27.998Z,99865.00
2023-08-01T09:11:59.029Z,99859.81
2023-08-01T09:14:29.364Z,99855.72
2023-08-01T09:16:59.646Z,99855.72
2023-08-01T09:19:30.559Z,99853.81
2023-08-01T09:22:03.167Z,99860.34
2023-08-01T09:24:32.810Z,99855.97
2023-08-01T09:27:11.066Z,99853.72
2023-08-01T09:29:43.533Z,99848.28
2023-08-01T09:32:19.860Z,99857.53
2023-08-01T09:34:50.015Z,99856.75
2023-08-01T09:37:21.698Z,99850.53
2023-08-01T09:40:03.256Z,99858.41
2023-08-01T09:42:46.861Z,99846.94
2023-08-01T09:45:23.112Z,99857.59
2023-08-01T09:47:53.217Z,99857.34
2023-08-01T09:50:27.224Z,99854.59
2023-08-01T09:52:59.364Z,99858.97
2023-08-01T09:55:38.109Z,99854.03
2023-08-01T09:58:08.714Z,99851.84
2023-08-01T10:00:38.439Z,99858.97
2023-08-01T10:03:08.703Z,99851.34
2023-08-01T10:05:41.496Z,99858.44
2023-08-01T10:08:11.211Z,99854.06
2023-08-01T10:10:41.527Z,99856.81
2023-08-01T10:13:11.548Z,99851.34
2023-08-01T10:15:41.312Z,99856.25
2023-08-01T10:18:12.323Z,99851.84
2023-08-01T10:20:43.000Z,99851.31
2023-08-01T10:23:13.057Z,99850.22
2023-08-01T10:25:43.967Z,99854.03
2023-08-01T10:28:14.388Z,99851.31
2023-08-01T10:30:44.447Z,99854.03
2023-08-01T10:33:15.567Z,99852.41
2023-08-01T10:35:45.653Z,99855.13
2023-08-01T10:38:16.113Z,99862.22
2023-08-01T10:40:46.737Z,99868.78
2023-08-01T10:43:27.587Z,99866.81
2023-08-01T10:46:07.416Z,99867.09
2023-08-01T10:48:37.546Z,99873.41
2023-08-01T10:51:07.273Z,99868.19
2023-08-01T10:53:46.309Z,99870.38
2023-08-01T10:56:20.949Z,99875.00
2023-08-01T10:58:51.853Z,99875.00
2023-08-01T11:01:21.572Z,99884.56
2023-08-01T11:03:51.403Z,99875.00
2023-08-01T11:06:22.689Z,99881.28
2023-08-01T11:08:52.498Z,99880.47
2023-08-01T11:11:22.175Z,99888.06
2023-08-01T11:14:01.729Z,99885.63
2023-08-01T11:16:32.630Z,99884.28
2023-08-01T11:19:02.342Z,99888.06
2023-08-01T11:21:32.183Z,99890.78
2023-08-01T11:24:02.603Z,99895.44
2023-08-01T11:26:32.713Z,99903.38
2023-08-01T11:29:06.037Z,99906.63
2023-08-01T11:31:37.238Z,99905.28
2023-08-01T11:34:15.185Z,99912.34
2023-08-01T11:36:44.908Z,99909.34
2023-08-01T11:39:15.196Z,99906.34
2023-08-01T11:41:45.712Z,99911.81
2023-08-01T11:44:15.505Z,99912.06
2023-08-01T11:46:48.129Z,99923.53
2023-08-01T11:49:21.006Z,99921.06
2023-08-01T11:51:52.869Z,99921.06
2023-08-01T11:54:24.127Z,99929.00
2023-08-01T11:56:53.809Z,99927.34
2023-08-01T11:59:24.220Z,99929.53
2023-08-01T12:01:53.881Z,99928.72
2023-08-01T12:04:30.842Z,99928.41
2023-08-01T12:07:04.331Z,99922.97
2023-08-01T12:09:36.751Z,99924.59
2023-08-01T12:12:09.515Z,99912.34
2023-08-01T12:14:45.866Z,99924.03
2023-08-01T12:17:18.289Z,99927.88
2023-08-01T12:19:50.866Z,99925.16
2023-08-01T12:22:21.219Z,99927.31
2023-08-01T12:24:50.901Z,99933.91
2023-08-01T12:27:20.645Z,99935.50
2023-08-01T12:29:53.062Z,99923.50
2023-08-01T12:32:25.514Z,99922.44
2023-08-01T12:34:56.564Z,99933.34
2023-08-01T12:37:27.421Z,99932.75
2023-08-01T12:39:57.818Z,99925.41
2023-08-01T12:42:30.166Z,99925.16
2023-08-01T12:45:07.372Z,99934.41
2023-08-01T12:47:42.528Z,99927.84
2023-08-01T12:50:12.757Z,99928.13
2023-08-01T12:52:42.474Z,99928.41
2023-08-01T12:55:13.921Z,99933.84
2023-08-01T12:57:44.535Z,99937.41
2023-08-01T13:00:14.986Z,99945.31
2023-08-01T13:02:44.712Z,99943.69
2023-08-01T13:05:16.131Z,99945.31
2023-08-01T13:07:46.057Z,99938.22
2023-08-01T13:10:16.169Z,99940.94
2023-08-01T13:12:47.225Z,99934.13
2023-08-01T13:15:17.957Z,99935.75
2023-08-01T13:17:50.604Z,99934.66
2023-08-01T13:20:22.684Z,99934.13
2023-08-01T13:22:56.376Z,99935.22
2023-08-01T13:25:26.134Z,99931.63
2023-08-01T13:27:55.822Z,99930.56
2023-08-01T13:30:25.895Z,99938.16
2023-08-01T13:32:55.686Z,99932.72
2023-08-01T13:35:29.273Z,99931.88
2023-08-01T13:37:59.097Z,99935.69
2023-08-01T13:40:29.149Z,99930.81
2023-08-01T13:42:59.939Z,99939.22
2023-08-01T13:45:34.923Z,99937.84
2023-08-01T13:48:03.983Z,99943.09
2023-08-01T13:50:34.505Z,99951.50
2023-08-01T13:53:04.599Z,99950.50
2023-08-01T13:55:36.310Z,99953.44
2023-08-01T13:58:06.036Z,99949.66
2023-08-01T14:00:37.540Z,99948.00
2023-08-01T14:03:09.982Z,99949.91
2023-08-01T14:05:39.673Z,99953.44
2023-08-01T14:08:09.360Z,99947.75
2023-08-01T14:10:39.455Z,99947.19
2023-08-01T14:13:10.222Z,99948.00
2023-08-01T14:15:40.234Z,99953.44
2023-08-01T14:18:09.932Z,99943.13
2023-08-01T14:20:39.672Z,99942.31
2023-08-01T14:23:11.053Z,99947.75
2023-08-01T14:25:41.210Z,99944.44
2023-08-01T14:28:11.117Z,99950.72
2023-08-01T14:30:42.030Z,99942.78
2023-08-01T14:33:13.397Z,99946.34
2023-08-01T14:35:43.514Z,99955.13
2023-08-01T14:38:13.625Z,99947.75
2023-08-01T14:40:50.345Z,99951.31
2023-08-01T14:43:31.885Z,99952.63
2023-08-01T14:46:05.815Z,99944.44
2023-08-01T14:48:35.624Z,99952.63
2023-08-01T14:51:10.936Z,99953.13
2023-08-01T14:53:40.658Z,99960.81
2023-08-01T14:56:10.954Z,99953.69
2023-08-01T14:58:43.389Z,99956.41
2023-08-01T15:01:23.004Z,99963.78
2023-08-01T15:03:52.697Z,99958.31
2023-08-01T15:06:22.439Z,99961.63
2023-08-01T15:08:56.131Z,99957.25
2023-08-01T15:11:26.829Z,99961.63
2023-08-01T15:13:57.898Z,99961.41
2023-08-01T15:16:28.275Z,99957.03
2023-08-01T15:18:58.326Z,99957.84
2023-08-01T15:21:29.460Z,99959.75
2023-08-01T15:24:00.139Z,99949.91
2023-08-01T15:26:30.556Z,99940.66
2023-08-01T15:29:00.961Z,99950.50
2023-08-01T15:31:30.894Z,99948.84
2023-08-01T15:34:01.419Z,99951.56
2023-08-01T15:36:32.050Z,99947.19
2023-08-01T15:39:01.988Z,99950.50
2023-08-01T15:41:32.049Z,99952.41
2023-08-01T15:44:01.708Z,99952.41
2023-08-01T15:46:31.969Z,99946.13
2023-08-01T15:49:01.926Z,99951.81
2023-08-01T15:51:31.725Z,99948.00
2023-08-01T15:54:02.470Z,99950.97
2023-08-01T15:56:33.084Z,99948.00
2023-08-01T15:59:04.219Z,99945.25
2023-08-01T16:01:36.628Z,99942.31
2023-08-01T16:04:06.537Z,99949.09
2023-08-01T16:06:36.364Z,99948.84
2023-08-01T16:09:07.303Z,99948.00
2023-08-01T16:11:37.957Z,99940.66
2023-08-01T16:14:08.320Z,99930.81
2023-08-01T16:16:39.170Z,99936.84
2023-08-01T16:19:09.149Z,99933.31
2023-08-01T16:21:39.328Z,99927.25
2023-08-01T16:24:09.069Z,99934.34
2023-08-01T16:26:38.867Z,99935.44
2023-08-01T16:29:09.870Z,99937.09
2023-08-01T16:31:39.923Z,99934.34
2023-08-01T16:34:09.693Z,99933.78
2023-08-01T16:36:40.258Z,99934.88
2023-08-01T16:39:10.114Z,99937.31
2023-08-01T16:41:41.052Z,99935.69
2023-08-01T16:44:11.199Z,99927.78
2023-08-01T16:46:41.380Z,99931.88
2023-08-01T16:49:22.198Z,99943.88
2023-08-01T16:51:52.372Z,99934.88
2023-08-01T16:54:22.114Z,99939.00
2023-08-01T16:56:51.833Z,99931.88
2023-08-01T16:59:21.521Z,99936.50
2023-08-01T17:01:51.286Z,99939.50
2023-08-01T17:04:21.381Z,99937.31
2023-08-01T17:06:51.140Z,99946.59
2023-08-01T17:09:21.189Z,99946.34
2023-08-01T17:11:50.878Z,99944.69
2023-08-01T17:14:21.279Z,99941.97
2023-08-01T17:16:53.905Z,99939.22
2023-08-01T17:19:24.798Z,99950.13
2023-08-01T17:21:54.540Z,99941.13
2023-08-01T17:24:25.012Z,99941.13
2023-08-01T17:26:55.485Z,99941.13
2023-08-01T17:29:25.943Z,99940.31
2023-08-01T17:31:57.603Z,99935.44
2023-08-01T17:34:27.293Z,99939.22
2023-08-01T17:37:00.386Z,99937.59
2023-08-01T17:39:31.036Z,99934.28
2023-08-01T17:42:04.123Z,99925.53
2023-08-01T17:44:40.280Z,99915.47
2023-08-01T17:47:12.060Z,99917.91
2023-08-01T17:49:41.776Z,99912.72
2023-08-01T17:52:12.379Z,99913.81
2023-08-01T17:54:42.035Z,99911.66
2023-08-01T17:57:11.938Z,99912.72
2023-08-01T17:59:42.224Z,99912.72
2023-08-01T18:02:13.634Z,99914.63
2023-08-01T18:04:46.479Z,99913.25
2023-08-01T18:07:16.557Z,99911.66
2023-08-01T18:09:46.292Z,99910.00
2023-08-01T18:12:18.783Z,99920.09
2023-08-01T18:14:49.020Z,99919.00
2023-08-01T18:17:18.824Z,99918.78
2023-08-01T18:19:51.416Z,99913.81
2023-08-01T18:22:22.447Z,99919.00
2023-08-01T18:24:53.106Z,99914.63
2023-08-01T18:27:22.844Z,99912.19
2023-08-01T18:29:54.434Z,99906.97
2023-08-01T18:32:25.961Z,99913.00
2023-08-01T18:35:01.837Z,99915.72
2023-08-01T18:37:32.665Z,99914.09
2023-08-01T18:40:03.454Z,99911.09
2023-08-01T18:42:33.774Z,99912.19
2023-08-01T18:45:07.990Z,99911.03
2023-08-01T18:47:38.955Z,99908.88
2023-08-01T18:50:11.667Z,99908.06
2023-08-01T18:52:43.779Z,99911.38
2023-08-01T18:55:16.825Z,99909.97
2023-08-01T18:57:50.911Z,99908.06
2023-08-01T19:00:20.696Z,99913.25
2023-08-01T19:02:50.918Z,99904.81
2023-08-01T19:05:22.701Z,99908.63
2023-08-01T19:07:52.870Z,99910.81
2023-08-01T19:10:22.838Z,99906.19
2023-08-01T19:12:54.010Z,99906.47
2023-08-01T19:15:23.720Z,99908.38
2023-08-01T19:17:53.425Z,99911.91
2023-08-01T19:20:23.148Z,99911.09
2023-08-01T19:22:53.538Z,99908.63
2023-08-01T19:25:23.515Z,99911.38
2023-08-01T19:27:53.180Z,99898.28
2023-08-01T19:30:26.461Z,99892.50
2023-08-01T19:32:56.275Z,99892.50
2023-08-01T19:35:26.907Z,99897.97
2023-08-01T19:37:57.258Z,99896.88
2023-08-01T19:40:28.813Z,99895.81
2023-08-01T19:42:58.907Z,99883.50
2023-08-01T19:45:29.270Z,99883.25
2023-08-01T19:47:59.013Z,99876.69
2023-08-01T19:50:28.732Z,99879.97
2023-08-01T19:52:59.947Z,99878.31
2023-08-01T19:55:33.440Z,99878.06
2023-08-01T19:58:06.759Z,99875.00
2023-08-01T20:00:37.859Z,99872.88
2023-08-01T20:03:10.238Z,99875.31
2023-08-01T20:05:40.363Z,99877.78
2023-08-01T20:08:11.999Z,99878.88
2023-08-01T20:10:41.771Z,99869.88
2023-08-01T20:13:15.949Z,99875.91
2023-08-01T20:15:46.412Z,99873.69
2023-08-01T20:18:16.106Z,99869.56
2023-08-01T20:20:46.228Z,99870.13
2023-08-01T20:23:16.869Z,99868.75
2023-08-01T20:25:46.631Z,99879.91
2023-08-01T20:28:19.069Z,99887.59
2023-08-01T20:30:49.131Z,99885.09
2023-08-01T20:33:20.968Z,99886.19
2023-08-01T20:35:59.079Z,99885.41
2023-08-01T20:38:30.626Z,99882.38
2023-08-01T20:41:01.438Z,99888.91
2023-08-01T20:43:34.633Z,99885.88
2023-08-01T20:46:04.716Z,99892.47
2023-08-01T20:48:34.424Z,99885.91
2023-08-01T20:51:05.430Z,99882.91
2023-08-01T20:53:35.543Z,99887.81
2023-08-01T20:56:07.949Z,99878.31
2023-08-01T20:58:38.082Z,99894.06
2023-08-01T21:01:09.026Z,99889.69
2023-08-01T21:03:41.551Z,99885.06
2023-08-01T21:06:18.504Z,99879.56
2023-08-01T21:09:03.401Z,99882.91
2023-08-01T21:11:39.005Z,99887.00
2023-08-01T21:14:08.768Z,99889.44
2023-08-01T21:16:39.235Z,99884.25
2023-08-01T21:19:10.089Z,99891.31
2023-08-01T21:21:39.828Z,99896.22
2023-08-01T21:24:12.586Z,99893.50
2023-08-01T21:26:43.292Z,99900.34
2023-08-01T21:29:14.458Z,99901.41
2023-08-01T21:31:44.176Z,99902.50
2023-08-01T21:34:14.562Z,99903.31
2023-08-01T21:36:44.955Z,99903.59
2023-08-01T21:39:14.678Z,99905.81
2023-08-01T21:41:44.390Z,99906.06
2023-08-01T21:44:14.446Z,99905.81
2023-08-01T21:46:45.409Z,99906.63
2023-08-01T21:49:15.847Z,99906.59
2023-08-01T21:51:46.024Z,99902.00
2023-08-01T21:54:15.773Z,99898.69
2023-08-01T21:56:46.197Z,99898.97
2023-08-01T21:59:18.198Z,99898.69
2023-08-01T22:01:53.315Z,99898.91
2023-08-01T22:04:23.017Z,99903.59
2023-08-01T22:06:52.758Z,99906.59
2023-08-01T22:09:22.507Z,99899.47
2023-08-01T22:11:52.936Z,99905.50
2023-08-01T22:14:22.758Z,99900.50
2023-08-01T22:16:52.463Z,99903.03
2023-08-01T22:19:22.597Z,99909.03
2023-08-01T22:21:52.349Z,99909.00
2023-08-01T22:24:23.150Z,99905.69
2023-08-01T22:26:53.875Z,99911.44
2023-08-01T22:29:24.219Z,99916.66
2023-08-01T22:31:53.929Z,99911.72
2023-08-01T22:34:27.786Z,99914.75
2023-08-01T22:36:58.022Z,99915.59
2023-08-01T22:39:31.621Z,99917.50
2023-08-01T22:42:01.268Z,99923.50
2023-08-01T22:44:32.609Z,99931.13
2023-08-01T22:47:02.720Z,99928.91
2023-08-01T22:49:36.665Z,99923.00
2023-08-01T22:52:10.602Z,99925.13
2023-08-01T22:54:40.413Z,99932.88
2023-08-01T22:57:10.248Z,99927.69
2023-08-01T22:59:40.361Z,99935.84
2023-08-01T23:02:11.513Z,99929.81
2023-08-01T23:04:41.710Z,99936.69
2023-08-01T23:07:15.993Z,99937.72
2023-08-01T23:09:46.034Z,99935.59
2023-08-01T23:12:15.679Z,99935.31
2023-08-01T23:14:46.045Z,99929.59
2023-08-01T23:17:16.156Z,99932.09
2023-08-01T23:19:45.876Z,99937.28
2023-08-01T23:22:16.230Z,99927.47
2023-08-01T23:24:50.311Z,99924.72
2023-08-01T23:27:20.316Z,99928.53
2023-08-01T23:29:50.394Z,99927.47
2023-08-01T23:32:20.790Z,99922.00
2023-08-01T23:34:51.098Z,99923.91
2023-08-01T23:37:22.572Z,99918.13
2023-08-01T23:39:52.937Z,99924.16
2023-08-01T23:42:23.669Z,99922.81
2023-08-01T23:44:54.093Z,99921.19
2023-08-01T23:47:23.867Z,99913.81
2023-08-01T23:49:54.077Z,99917.09
2023-08-01T23:52:23.799Z,99907.28
2023-08-01T23:54:54.473Z,99917.69
2023-08-01T23:57:24.561Z,99904.28
2023-08-01T23:59:57.122Z,99913.56
